createdAt,value
2018-03-23T00:00:43.408Z,23.53
2018-03-23T00:03:11.032Z,27.27
2018-03-23T00:05:38.608Z,28.90
2018-03-23T00:08:06.201Z,32.70
2018-03-23T00:10:33.834Z,35.80
2018-03-23T00:13:01.431Z,28.00
2018-03-23T00:15:29.023Z,27.00
2018-03-23T00:17:56.663Z,28.30
2018-03-23T00:20:24.247Z,18.40
2018-03-23T00:22:51.838Z,21.10
2018-03-23T00:25:19.465Z,26.73
2018-03-23T00:27:47.053Z,15.30
2018-03-23T00:30:14.642Z,21.07
2018-03-23T00:32:42.261Z,20.40
2018-03-23T00:35:09.851Z,25.80
2018-03-23T00:37:37.448Z,22.07
2018-03-23T00:40:05.084Z,18.37
2018-03-23T00:42:32.684Z,24.03
2018-03-23T00:45:00.274Z,20.73
2018-03-23T00:47:27.905Z,23.50
2018-03-23T00:49:55.482Z,22.80
2018-03-23T00:52:23.069Z,26.33
2018-03-23T00:54:50.702Z,23.10
2018-03-23T00:57:18.330Z,22.00
2018-03-23T00:59:45.910Z,29.50
2018-03-23T01:02:13.542Z,21.90
2018-03-23T01:04:41.126Z,20.70
2018-03-23T01:07:08.719Z,21.33
2018-03-23T01:09:36.384Z,20.47
2018-03-23T01:12:03.967Z,17.57
2018-03-23T01:14:31.559Z,23.30
2018-03-23T01:16:59.223Z,19.00
2018-03-23T01:19:26.822Z,17.60
2018-03-23T01:21:54.407Z,19.03
2018-03-23T01:24:22.028Z,24.17
2018-03-23T01:26:49.616Z,20.57
2018-03-23T01:29:17.211Z,16.77
2018-03-23T01:31:44.835Z,20.73
2018-03-23T01:34:12.419Z,22.93
2018-03-23T01:36:40.010Z,25.20
2018-03-23T01:39:07.644Z,23.27
2018-03-23T01:41:35.235Z,28.80
2018-03-23T01:44:02.849Z,19.80
2018-03-23T01:46:30.469Z,25.83
2018-03-23T01:48:58.053Z,24.83
2018-03-23T01:51:25.649Z,24.90
2018-03-23T01:53:53.269Z,16.37
2018-03-23T01:56:20.857Z,22.67
2018-03-23T01:58:48.458Z,27.13
2018-03-23T02:01:16.089Z,22.00
2018-03-23T02:03:43.684Z,31.27
2018-03-23T02:06:11.271Z,21.77
2018-03-23T02:08:38.890Z,19.57
2018-03-23T02:11:06.473Z,17.30
2018-03-23T02:13:34.057Z,22.67
2018-03-23T02:16:01.672Z,22.13
2018-03-23T02:18:29.266Z,24.17
2018-03-23T02:20:56.856Z,25.40
2018-03-23T02:23:24.486Z,19.83
2018-03-23T02:25:52.068Z,22.47
2018-03-23T02:28:19.659Z,25.07
2018-03-23T02:30:47.300Z,27.40
2018-03-23T02:33:14.886Z,28.03
2018-03-23T02:35:42.481Z,23.53
2018-03-23T02:38:10.099Z,20.60
2018-03-23T02:40:37.679Z,18.73
2018-03-23T02:43:05.270Z,15.57
2018-03-23T02:45:32.885Z,18.57
2018-03-23T02:48:00.471Z,18.93
2018-03-23T02:50:28.058Z,12.90
2018-03-23T02:52:55.709Z,17.73
2018-03-23T02:55:23.291Z,16.80
2018-03-23T02:57:50.878Z,19.77
2018-03-23T03:00:18.499Z,16.00
2018-03-23T03:02:46.087Z,14.77
2018-03-23T03:05:13.679Z,20.20
2018-03-23T03:07:41.311Z,13.40
2018-03-23T03:10:08.892Z,16.77
2018-03-23T03:12:36.474Z,13.87
2018-03-23T03:15:04.141Z,10.10
2018-03-23T03:17:31.721Z,7.20
2018-03-23T03:19:59.285Z,6.20
2018-03-23T03:22:26.894Z,6.40
2018-03-23T03:24:54.476Z,8.60
2018-03-23T03:27:22.056Z,7.97
2018-03-23T03:29:49.678Z,5.07
2018-03-23T03:32:17.253Z,7.90
2018-03-23T03:34:44.831Z,7.17
2018-03-23T03:37:12.440Z,9.27
2018-03-23T03:39:40.014Z,9.50
2018-03-23T03:42:07.598Z,8.33
2018-03-23T03:44:35.218Z,17.90
2018-03-23T03:47:02.798Z,10.67
2018-03-23T03:49:30.427Z,12.50
2018-03-23T03:51:58.033Z,9.87
2018-03-23T03:54:25.610Z,8.23
2018-03-23T03:56:53.182Z,8.60
2018-03-23T03:59:20.799Z,12.23
2018-03-23T04:01:48.377Z,10.70
2018-03-23T04:04:15.966Z,10.07
2018-03-23T04:06:43.579Z,12.50
2018-03-23T04:09:11.152Z,13.80
2018-03-23T04:11:38.741Z,12.30
2018-03-23T04:14:06.353Z,9.20
2018-03-23T04:16:33.934Z,9.83
2018-03-23T04:19:01.519Z,9.60
2018-03-23T04:21:29.146Z,8.63
2018-03-23T04:23:56.729Z,14.07
2018-03-23T04:26:24.310Z,9.50
2018-03-23T04:28:51.929Z,10.23
2018-03-23T04:31:19.498Z,12.70
2018-03-23T04:33:47.090Z,13.33
2018-03-23T04:36:14.720Z,15.03
2018-03-23T04:38:42.319Z,12.77
2018-03-23T04:41:09.901Z,10.43
2018-03-23T04:43:37.526Z,16.00
2018-03-23T04:46:05.152Z,10.83
2018-03-23T04:48:32.735Z,12.93
2018-03-23T04:51:00.349Z,13.13
2018-03-23T04:53:27.952Z,13.33
2018-03-23T04:55:55.545Z,14.10
2018-03-23T04:58:23.174Z,13.67
2018-03-23T05:00:50.757Z,9.63
2018-03-23T05:03:18.359Z,18.70
2018-03-23T05:05:45.972Z,21.10
2018-03-23T05:08:13.569Z,32.97
2018-03-23T05:10:41.157Z,18.97
2018-03-23T05:13:08.769Z,12.50
2018-03-23T05:15:36.360Z,17.17
2018-03-23T05:18:03.937Z,11.30
2018-03-23T05:20:31.562Z,10.43
2018-03-23T05:22:59.124Z,9.87
2018-03-23T05:25:26.706Z,13.47
2018-03-23T05:27:54.326Z,11.37
2018-03-23T05:30:21.913Z,12.90
2018-03-23T05:32:49.502Z,18.13
2018-03-23T05:35:17.116Z,13.57
2018-03-23T05:37:44.699Z,16.50
2018-03-23T05:40:12.274Z,12.57
2018-03-23T05:42:39.890Z,9.10
2018-03-23T05:45:07.472Z,12.80
2018-03-23T05:47:35.049Z,15.27
2018-03-23T05:50:02.661Z,15.73
2018-03-23T05:52:30.370Z,18.10
2018-03-23T05:54:58.003Z,19.10
2018-03-23T05:57:25.634Z,87.27
2018-03-23T05:59:53.299Z,31.70
2018-03-23T06:02:20.867Z,36.57
2018-03-23T06:04:48.510Z,22.17
2018-03-23T06:07:16.098Z,21.03
2018-03-23T06:09:43.670Z,30.20
2018-03-23T06:12:11.285Z,26.20
2018-03-23T06:14:38.868Z,33.47
2018-03-23T06:17:06.550Z,31.17
2018-03-23T06:19:34.164Z,19.77
2018-03-23T06:22:01.742Z,27.80
2018-03-23T06:24:29.328Z,27.17
2018-03-23T06:26:56.923Z,38.93
2018-03-23T06:29:24.497Z,22.10
2018-03-23T06:31:52.073Z,24.37
2018-03-23T06:34:19.694Z,25.50
2018-03-23T06:36:47.274Z,23.80
2018-03-23T06:39:14.871Z,21.23
2018-03-23T06:41:42.490Z,21.60
2018-03-23T06:44:10.121Z,13.83
2018-03-23T06:46:38.622Z,23.83
2018-03-23T06:49:06.239Z,32.53
2018-03-23T06:51:33.825Z,26.93
2018-03-23T06:54:01.586Z,26.40
2018-03-23T06:56:29.203Z,21.77
2018-03-23T06:58:56.795Z,8.63
2018-03-23T07:01:24.385Z,13.27
2018-03-23T07:03:52.029Z,27.13
2018-03-23T07:06:19.613Z,25.43
2018-03-23T07:08:47.198Z,25.13
2018-03-23T07:11:14.837Z,26.60
2018-03-23T07:13:42.414Z,30.47
2018-03-23T07:16:10.100Z,19.27
2018-03-23T07:18:37.774Z,18.33
2018-03-23T07:21:06.286Z,32.90
2018-03-23T07:23:33.868Z,30.43
2018-03-23T07:26:01.500Z,23.17
2018-03-23T07:28:29.092Z,43.93
2018-03-23T07:30:56.694Z,48.07
2018-03-23T07:33:24.327Z,75.27
2018-03-23T07:35:51.923Z,25.63
2018-03-23T07:38:19.510Z,47.90
2018-03-23T07:40:47.141Z,34.20
2018-03-23T07:43:14.734Z,27.00
2018-03-23T07:45:42.383Z,39.37
2018-03-23T07:48:10.004Z,19.43
2018-03-23T07:50:37.597Z,29.40
2018-03-23T07:53:05.186Z,22.93
2018-03-23T07:55:32.810Z,32.80
2018-03-23T07:58:00.394Z,13.90
2018-03-23T08:00:27.987Z,24.00
2018-03-23T08:02:55.611Z,21.87
2018-03-23T08:05:23.198Z,36.67
2018-03-23T08:07:50.773Z,24.23
2018-03-23T08:10:18.402Z,23.30
2018-03-23T08:12:46.106Z,14.03
2018-03-23T08:15:13.710Z,13.40
2018-03-23T08:17:41.332Z,15.57
2018-03-23T08:20:08.949Z,11.60
2018-03-23T08:22:36.580Z,15.33
2018-03-23T08:25:04.209Z,8.07
2018-03-23T08:27:31.791Z,10.50
2018-03-23T08:29:59.384Z,11.83
2018-03-23T08:32:27.055Z,19.10
2018-03-23T08:34:54.650Z,15.47
2018-03-23T08:37:22.307Z,11.07
2018-03-23T08:39:49.965Z,16.67
2018-03-23T08:42:17.562Z,15.83
2018-03-23T08:44:45.246Z,16.70
2018-03-23T08:47:12.876Z,25.90
2018-03-23T08:49:40.470Z,28.33
2018-03-23T08:52:08.644Z,28.17
2018-03-23T08:54:36.266Z,22.90
2018-03-23T08:57:03.858Z,23.70
2018-03-23T08:59:31.492Z,26.63
2018-03-23T09:01:59.121Z,16.70
2018-03-23T09:04:26.696Z,13.00
2018-03-23T09:06:54.299Z,18.10
2018-03-23T09:09:21.984Z,19.10
2018-03-23T09:11:49.569Z,18.20
2018-03-23T09:14:17.149Z,16.20
2018-03-23T09:16:44.796Z,25.63
2018-03-23T09:19:12.390Z,15.80
2018-03-23T09:21:39.981Z,13.60
2018-03-23T09:24:07.614Z,24.73
2018-03-23T09:26:35.245Z,29.70
2018-03-23T09:29:02.832Z,22.67
2018-03-23T09:31:30.462Z,23.93
2018-03-23T09:33:58.076Z,29.73
2018-03-23T09:36:25.682Z,25.00
2018-03-23T09:38:53.349Z,27.97
2018-03-23T09:41:20.969Z,38.50
2018-03-23T09:43:48.610Z,33.80
2018-03-23T09:46:16.257Z,32.80
2018-03-23T09:48:43.903Z,25.33
2018-03-23T09:51:11.471Z,26.73
2018-03-23T09:53:39.083Z,11.50
2018-03-23T09:56:06.672Z,11.10
2018-03-23T09:58:34.256Z,14.70
2018-03-23T10:01:01.955Z,14.90
2018-03-23T10:03:29.558Z,12.93
2018-03-23T10:05:57.169Z,20.20
2018-03-23T10:08:24.796Z,16.43
2018-03-23T10:10:52.378Z,25.70
2018-03-23T10:13:19.986Z,12.17
2018-03-23T10:15:47.617Z,21.20
2018-03-23T10:18:15.201Z,14.60
2018-03-23T10:20:42.793Z,18.70
2018-03-23T10:23:10.405Z,13.43
2018-03-23T10:25:37.984Z,8.87
2018-03-23T10:28:05.555Z,13.67
2018-03-23T10:30:33.166Z,11.87
2018-03-23T10:33:00.760Z,17.80
2018-03-23T10:35:28.572Z,15.40
2018-03-23T10:37:56.380Z,21.47
2018-03-23T10:40:24.037Z,20.40
2018-03-23T10:42:51.620Z,22.20
2018-03-23T10:45:19.380Z,21.07
2018-03-23T10:47:46.962Z,14.60
2018-03-23T10:50:14.692Z,15.53
2018-03-23T10:52:42.535Z,21.10
2018-03-23T10:55:10.113Z,21.37
2018-03-23T10:57:37.693Z,20.50
2018-03-23T11:00:05.405Z,15.77
2018-03-23T11:02:43.029Z,19.73
2018-03-23T11:05:10.655Z,13.53
2018-03-23T11:07:38.233Z,23.93
2018-03-23T11:10:05.814Z,17.23
2018-03-23T11:12:33.432Z,18.07
2018-03-23T11:15:01.054Z,31.07
2018-03-23T11:17:28.634Z,19.00
2018-03-23T11:19:56.234Z,16.83
2018-03-23T11:22:23.818Z,16.63
2018-03-23T11:24:51.586Z,20.00
2018-03-23T11:27:19.199Z,15.70
2018-03-23T11:29:46.926Z,22.30
2018-03-23T11:32:14.571Z,22.07
2018-03-23T11:34:42.185Z,16.57
2018-03-23T11:37:09.760Z,19.13
2018-03-23T11:39:37.322Z,12.20
2018-03-23T11:42:04.931Z,15.37
2018-03-23T11:44:32.493Z,13.77
2018-03-23T11:47:00.086Z,17.03
2018-03-23T11:49:27.693Z,17.10
2018-03-23T11:51:55.297Z,19.70
2018-03-23T11:54:22.869Z,18.90
2018-03-23T11:56:50.614Z,15.43
2018-03-23T11:59:18.350Z,21.20
2018-03-23T12:01:45.923Z,13.40
2018-03-23T12:04:13.631Z,42.87
2018-03-23T12:06:41.206Z,13.37
2018-03-23T12:09:08.770Z,13.47
2018-03-23T12:11:36.383Z,22.93
2018-03-23T12:14:04.123Z,18.00
2018-03-23T12:16:31.701Z,23.00
2018-03-23T12:18:59.441Z,25.13
2018-03-23T12:21:27.054Z,12.53
2018-03-23T12:23:54.771Z,18.17
2018-03-23T12:26:22.368Z,20.43
2018-03-23T12:28:50.305Z,19.50
2018-03-23T12:31:17.954Z,17.17
2018-03-23T12:33:45.556Z,16.10
2018-03-23T12:36:13.142Z,14.90
2018-03-23T12:38:40.706Z,15.63
2018-03-23T12:41:08.315Z,16.30
2018-03-23T12:43:35.919Z,14.53
2018-03-23T12:46:03.516Z,20.77
2018-03-23T12:48:31.113Z,23.43
2018-03-23T12:50:58.750Z,23.50
2018-03-23T12:53:26.320Z,14.23
2018-03-23T12:55:53.924Z,9.50
2018-03-23T12:58:21.502Z,16.37
2018-03-23T13:00:49.294Z,25.13
2018-03-23T13:03:16.899Z,18.40
2018-03-23T13:05:44.458Z,19.90
2018-03-23T13:08:12.015Z,29.40
2018-03-23T13:10:39.681Z,16.33
2018-03-23T13:13:07.254Z,16.93
2018-03-23T13:15:34.831Z,21.83
2018-03-23T13:18:02.435Z,24.33
2018-03-23T13:20:30.000Z,19.00
2018-03-23T13:22:57.573Z,19.33
2018-03-23T13:25:25.192Z,19.57
2018-03-23T13:27:52.776Z,23.90
2018-03-23T13:30:20.367Z,21.37
2018-03-23T13:32:47.988Z,17.87
2018-03-23T13:35:15.565Z,24.33
2018-03-23T13:37:43.129Z,19.80
2018-03-23T13:40:10.736Z,27.37
2018-03-23T13:42:38.302Z,19.67
2018-03-23T13:45:05.878Z,21.37
2018-03-23T13:47:33.483Z,22.73
2018-03-23T13:50:01.070Z,24.87
2018-03-23T13:52:28.650Z,24.10
2018-03-23T13:54:56.255Z,20.57
2018-03-23T13:57:23.838Z,43.80
2018-03-23T13:59:57.050Z,25.70
2018-03-23T14:02:24.633Z,23.77
2018-03-23T14:04:52.254Z,24.13
2018-03-23T14:07:19.873Z,53.13
2018-03-23T14:09:47.454Z,29.13
2018-03-23T14:12:15.026Z,32.87
2018-03-23T14:14:43.602Z,71.33
2018-03-23T14:17:11.186Z,62.63
2018-03-23T14:19:38.778Z,37.60
2018-03-23T14:22:06.385Z,48.37
2018-03-23T14:24:33.969Z,26.20
2018-03-23T14:27:01.555Z,42.03
2018-03-23T14:29:29.174Z,32.97
2018-03-23T14:31:56.765Z,22.07
2018-03-23T14:34:24.353Z,31.90
2018-03-23T14:36:51.970Z,25.60
2018-03-23T14:39:19.564Z,25.03
2018-03-23T14:41:47.154Z,34.80
2018-03-23T14:44:14.810Z,27.70
2018-03-23T14:46:42.425Z,28.50
2018-03-23T14:49:10.000Z,18.67
2018-03-23T14:51:37.666Z,28.07
2018-03-23T14:54:05.258Z,24.90
2018-03-23T14:56:32.842Z,30.63
2018-03-23T14:59:05.874Z,23.70
2018-03-23T15:01:33.450Z,14.83
2018-03-23T15:04:01.035Z,24.60
2018-03-23T15:06:28.669Z,30.23
2018-03-23T15:08:56.241Z,19.27
2018-03-23T15:11:23.811Z,29.27
2018-03-23T15:13:51.462Z,31.10
2018-03-23T15:16:19.042Z,26.47
2018-03-23T15:18:46.635Z,32.80
2018-03-23T15:21:14.263Z,30.20
2018-03-23T15:23:41.910Z,36.43
2018-03-23T15:26:09.494Z,37.07
2018-03-23T15:28:37.174Z,125.10
2018-03-23T15:31:04.775Z,49.87
2018-03-23T15:33:32.353Z,59.20
2018-03-23T15:35:59.974Z,47.33
2018-03-23T15:38:27.571Z,51.23
2018-03-23T15:40:55.190Z,42.83
2018-03-23T15:43:22.815Z,32.60
2018-03-23T15:45:50.398Z,36.37
2018-03-23T15:48:17.999Z,49.37
2018-03-23T15:50:45.600Z,41.53
2018-03-23T15:53:13.190Z,43.67
2018-03-23T15:55:40.782Z,50.20
2018-03-23T15:58:08.540Z,50.30
2018-03-23T16:00:36.135Z,42.63
2018-03-23T16:03:03.759Z,48.07
2018-03-23T16:05:31.760Z,51.93
2018-03-23T16:07:59.365Z,34.10
2018-03-23T16:10:26.958Z,49.40
2018-03-23T16:12:54.588Z,52.80
2018-03-23T16:15:22.183Z,53.23
2018-03-23T16:17:49.773Z,43.77
2018-03-23T16:20:17.406Z,49.33
2018-03-23T16:22:44.994Z,61.63
2018-03-23T16:25:12.573Z,60.67
2018-03-23T16:27:40.235Z,60.83
2018-03-23T16:30:07.822Z,40.97
2018-03-23T16:32:35.403Z,37.83
2018-03-23T16:35:03.036Z,38.90
2018-03-23T16:37:30.655Z,49.13
2018-03-23T16:39:58.317Z,40.90
2018-03-23T16:42:25.928Z,48.70
2018-03-23T16:44:53.499Z,47.27
2018-03-23T16:47:21.090Z,60.33
2018-03-23T16:49:48.705Z,93.10
2018-03-23T16:52:16.298Z,79.13
2018-03-23T16:54:43.925Z,56.43
2018-03-23T16:57:11.642Z,86.70
2018-03-23T16:59:39.224Z,55.80
2018-03-23T17:02:06.809Z,51.60
2018-03-23T17:04:34.447Z,51.30
2018-03-23T17:07:02.035Z,49.30
2018-03-23T17:09:29.639Z,64.80
2018-03-23T17:11:57.266Z,68.43
2018-03-23T17:14:24.896Z,60.37
2018-03-23T17:16:52.509Z,60.37
2018-03-23T17:19:20.129Z,51.03
2018-03-23T17:21:47.860Z,49.40
2018-03-23T17:24:15.506Z,55.43
2018-03-23T17:26:43.123Z,60.63
2018-03-23T17:29:11.033Z,107.67
2018-03-23T17:31:38.694Z,45.27
2018-03-23T17:34:06.373Z,52.10
2018-03-23T17:36:34.022Z,63.40
2018-03-23T17:39:01.594Z,52.83
2018-03-23T17:41:29.360Z,72.97
2018-03-23T17:43:56.947Z,73.70
2018-03-23T17:46:24.670Z,61.87
2018-03-23T17:48:52.351Z,61.60
2018-03-23T17:51:19.906Z,62.67
2018-03-23T17:53:47.647Z,72.67
2018-03-23T17:56:15.272Z,79.10
2018-03-23T17:58:42.880Z,73.93
2018-03-23T18:01:10.640Z,102.90
2018-03-23T18:03:38.233Z,87.73
2018-03-23T18:06:05.803Z,111.60
2018-03-23T18:08:33.430Z,61.47
2018-03-23T18:11:01.096Z,71.47
2018-03-23T18:13:28.765Z,85.47
2018-03-23T18:15:56.342Z,88.87
2018-03-23T18:18:24.086Z,96.30
2018-03-23T18:20:51.662Z,76.30
2018-03-23T18:23:19.237Z,64.80
2018-03-23T18:25:46.866Z,60.33
2018-03-23T18:28:14.547Z,67.70
2018-03-23T18:30:42.190Z,52.53
2018-03-23T18:33:09.831Z,67.40
2018-03-23T18:35:37.520Z,78.50
2018-03-23T18:38:05.167Z,61.43
2018-03-23T18:40:32.767Z,71.47
2018-03-23T18:43:00.339Z,65.13
2018-03-23T18:45:27.910Z,65.80
2018-03-23T18:47:55.606Z,66.00
2018-03-23T18:50:23.179Z,94.37
2018-03-23T18:52:50.934Z,81.67
2018-03-23T18:55:18.603Z,91.73
2018-03-23T18:57:46.277Z,63.30
2018-03-23T19:00:13.886Z,58.47
2018-03-23T19:02:41.592Z,70.90
2018-03-23T19:05:09.251Z,69.80
2018-03-23T19:07:36.910Z,156.10
2018-03-23T19:10:04.557Z,107.77
2018-03-23T19:12:32.151Z,94.40
2018-03-23T19:14:59.907Z,82.90
2018-03-23T19:17:27.525Z,79.60
2018-03-23T19:19:55.109Z,77.13
2018-03-23T19:22:22.672Z,96.47
2018-03-23T19:24:50.330Z,92.30
2018-03-23T19:27:17.892Z,89.30
2018-03-23T19:29:45.692Z,124.37
2018-03-23T19:32:13.302Z,70.83
2018-03-23T19:34:40.869Z,80.27
2018-03-23T19:37:08.439Z,49.97
2018-03-23T19:39:36.114Z,75.47
2018-03-23T19:42:03.677Z,55.13
2018-03-23T19:44:31.264Z,76.13
2018-03-23T19:46:58.866Z,95.63
2018-03-23T19:49:26.435Z,81.93
2018-03-23T19:51:54.039Z,56.90
2018-03-23T19:54:21.694Z,59.90
2018-03-23T19:56:49.324Z,66.60
2018-03-23T19:59:17.052Z,64.13
2018-03-23T20:01:44.683Z,64.43
2018-03-23T20:04:12.273Z,53.70
2018-03-23T20:06:39.848Z,58.77
2018-03-23T20:09:07.462Z,62.50
2018-03-23T20:11:35.045Z,63.43
2018-03-23T20:14:08.231Z,64.83
2018-03-23T20:16:35.813Z,60.23
2018-03-23T20:19:03.397Z,55.83
2018-03-23T20:21:30.995Z,51.30
2018-03-23T20:27:13.400Z,53.20
2018-03-23T20:29:40.966Z,82.47
2018-03-23T20:32:14.228Z,78.47
2018-03-23T20:34:41.822Z,58.70
2018-03-23T20:37:09.383Z,52.13
2018-03-23T20:39:36.972Z,50.03
2018-03-23T20:42:04.541Z,60.60
2018-03-23T20:44:32.138Z,64.30
2018-03-23T20:46:59.755Z,74.33
2018-03-23T20:49:27.322Z,69.53
2018-03-23T20:51:54.894Z,85.53
2018-03-23T20:54:22.520Z,74.70
2018-03-23T20:56:50.123Z,73.33
2018-03-23T20:59:17.762Z,83.67
2018-03-23T21:01:45.357Z,66.70
2018-03-23T21:04:12.934Z,61.67
2018-03-23T21:06:40.526Z,73.63
2018-03-23T21:09:08.138Z,65.97
2018-03-23T21:11:35.698Z,50.17
2018-03-23T21:14:03.306Z,58.23
2018-03-23T21:16:30.923Z,53.83
2018-03-23T21:18:58.528Z,42.10
2018-03-23T21:21:26.222Z,38.20
2018-03-23T21:23:53.830Z,39.70
2018-03-23T21:26:21.411Z,39.70
2018-03-23T21:28:48.990Z,38.43
2018-03-23T21:31:16.605Z,53.47
2018-03-23T21:33:44.200Z,49.77
2018-03-23T21:36:11.772Z,55.47
2018-03-23T21:38:39.422Z,52.83
2018-03-23T21:41:06.997Z,50.23
2018-03-23T21:43:34.569Z,53.70
2018-03-23T21:46:02.176Z,66.83
2018-03-23T21:48:29.756Z,59.67
2018-03-23T21:50:57.321Z,50.40
2018-03-23T21:53:24.931Z,59.77
2018-03-23T21:55:52.505Z,58.73
2018-03-23T21:58:20.087Z,55.60
2018-03-23T22:00:47.684Z,60.10
2018-03-23T22:03:15.234Z,46.07
2018-03-23T22:05:42.818Z,47.77
2018-03-23T22:08:10.418Z,52.10
2018-03-23T22:10:38.031Z,52.23
2018-03-23T22:13:05.583Z,52.23
2018-03-23T22:15:33.187Z,52.40
2018-03-23T22:18:00.746Z,64.10
2018-03-23T22:20:28.316Z,44.40
2018-03-23T22:22:55.905Z,57.57
2018-03-23T22:25:23.471Z,59.07
2018-03-23T22:27:51.044Z,53.53
2018-03-23T22:30:18.649Z,58.40
2018-03-23T22:32:46.226Z,48.03
2018-03-23T22:35:13.796Z,61.43
2018-03-23T22:37:41.411Z,49.23
2018-03-23T22:40:09.002Z,51.37
2018-03-23T22:42:36.585Z,43.47
2018-03-23T22:45:04.229Z,41.87
2018-03-23T22:47:31.816Z,50.97
2018-03-23T22:49:59.390Z,46.70
2018-03-23T22:52:27.002Z,46.50
2018-03-23T22:54:54.867Z,51.70
2018-03-23T22:57:22.541Z,50.80
2018-03-23T22:59:50.170Z,48.23
2018-03-23T23:02:17.759Z,54.10
2018-03-23T23:04:45.342Z,57.57
2018-03-23T23:07:12.949Z,109.27
2018-03-23T23:09:40.548Z,59.47
2018-03-23T23:12:08.518Z,60.60
2018-03-23T23:14:36.144Z,60.67
2018-03-23T23:17:03.726Z,56.07
2018-03-23T23:19:31.359Z,57.10
2018-03-23T23:21:59.002Z,48.27
2018-03-23T23:24:26.587Z,56.67
2018-03-23T23:26:54.169Z,51.40
2018-03-23T23:29:21.838Z,54.17
2018-03-23T23:31:49.417Z,55.53
2018-03-23T23:34:17.005Z,56.43
2018-03-23T23:36:44.623Z,58.33
2018-03-23T23:39:12.215Z,51.67
2018-03-23T23:41:39.805Z,49.97
2018-03-23T23:44:07.428Z,46.93
2018-03-23T23:46:35.021Z,47.23
2018-03-23T23:49:02.611Z,40.90
2018-03-23T23:51:30.242Z,41.20
2018-03-23T23:53:57.829Z,50.63
2018-03-23T23:56:25.407Z,60.47
2018-03-23T23:58:53.031Z,53.40
